Time;durP1;ratioP1;P1;durP2;ratioP2;P2;SDS_P1;SDS_P2;PMS_P1;PMS_P2;Temp;Humidity;BMP_temperature;BMP_pressure;BME280_temperature;BME280_humidity;BME280_pressure;Samples;Min_cycle;Max_cycle;Signal;HPM_P1;HPM_P2
2022/04/11 00:00:15;;;;;;;6.68;3.83;;;;;;;1.82;80.15;101953.47;5018688;28;20037;-61
2022/04/11 00:02:40;;;;;;;8.13;4.15;;;;;;;1.86;79.87;101955.19;5001005;28;20673;-61
2022/04/11 00:05:06;;;;;;;7.10;4.13;;;;;;;1.78;80.43;101957.88;5016330;28;20072;-61
2022/04/11 00:07:31;;;;;;;9.25;3.92;;;;;;;1.58;79.97;101956.31;5018433;28;20091;-61
2022/04/11 00:09:57;;;;;;;8.35;4.47;;;;;;;1.60;80.75;101949.25;5018706;28;20565;-61
2022/04/11 00:12:22;;;;;;;6.53;4.15;;;;;;;1.65;80.07;101952.72;5018880;28;20072;-61
2022/04/11 00:14:48;;;;;;;7.07;3.97;;;;;;;1.78;80.10;101949.97;5017460;28;20402;-61
2022/04/11 00:17:13;;;;;;;11.45;4.65;;;;;;;1.85;80.03;101948.16;5018907;28;20540;-61
2022/04/11 00:19:38;;;;;;;11.73;4.50;;;;;;;1.81;80.36;101954.34;5018764;28;20040;-61
2022/04/11 00:22:04;;;;;;;11.25;4.15;;;;;;;1.68;80.49;101943.06;5033884;28;20080;-61
2022/04/11 00:24:29;;;;;;;10.27;4.38;;;;;;;1.80;80.42;101942.06;5036710;28;20045;-61
2022/04/11 00:26:55;;;;;;;8.18;3.88;;;;;;;1.67;80.92;101937.81;5036526;28;20052;-61
2022/04/11 00:29:20;;;;;;;8.75;4.53;;;;;;;1.65;80.62;101929.94;5038205;28;20048;-62
2022/04/11 00:31:46;;;;;;;10.13;3.80;;;;;;;1.60;81.34;101928.22;5054258;28;20044;-61
2022/04/11 00:34:11;;;;;;;11.18;5.15;;;;;;;1.47;81.09;101928.34;5038069;28;20054;-61
2022/04/11 00:36:36;;;;;;;8.93;3.88;;;;;;;1.59;80.97;101935.25;5053837;28;20025;-61
2022/04/11 00:39:02;;;;;;;7.15;3.88;;;;;;;1.51;81.01;101927.44;5028305;28;20394;-61
2022/04/11 00:41:28;;;;;;;7.57;3.67;;;;;;;1.49;81.34;101926.56;5018673;28;20037;-61
2022/04/11 00:43:53;;;;;;;9.95;4.78;;;;;;;1.58;80.95;101922.13;5019553;28;20044;-61
2022/04/11 00:46:19;;;;;;;14.90;6.50;;;;;;;1.58;81.15;101916.88;5019834;28;20766;-61
2022/04/11 00:48:44;;;;;;;19.48;6.15;;;;;;;1.72;80.20;101923.75;5017783;28;20079;-61
2022/04/11 00:51:20;;;;;;;13.38;6.38;;;;;;;1.72;80.90;101918.50;5018592;28;20124;-61
2022/04/11 00:53:46;;;;;;;10.13;5.72;;;;;;;1.69;80.86;101912.38;5014951;28;20480;-61
2022/04/11 00:56:15;;;;;;;8.38;5.13;;;;;;;1.55;81.57;101923.88;5015959;28;20073;-61
2022/04/11 00:58:41;;;;;;;12.07;5.82;;;;;;;1.42;81.75;101911.75;5001127;28;20049;-61
2022/04/11 01:01:08;;;;;;;7.57;4.13;;;;;;;1.45;81.67;101913.47;5015786;28;20436;-61
2022/04/11 01:03:34;;;;;;;7.70;4.18;;;;;;;1.40;82.01;101907.38;5000631;28;20072;-62
2022/04/11 01:06:02;;;;;;;7.50;4.03;;;;;;;1.43;82.41;101905.59;5000112;28;20044;-61
2022/04/11 01:08:28;;;;;;;11.75;5.20;;;;;;;1.44;82.68;101906.47;4999913;28;20049;-62
2022/04/11 01:10:54;;;;;;;12.77;5.82;;;;;;;1.36;83.32;101900.44;4998971;28;20041;-61
2022/04/11 01:13:19;;;;;;;11.07;5.07;;;;;;;1.41;83.35;101904.75;5012937;28;20546;-61
2022/04/11 01:15:57;;;;;;;9.20;4.95;;;;;;;1.47;83.40;101890.69;4996682;28;20694;-61
2022/04/11 01:18:22;;;;;;;15.60;5.72;;;;;;;1.52;82.69;101887.13;5020505;28;20040;-61
2022/04/11 01:20:48;;;;;;;13.48;5.80;;;;;;;1.54;82.23;101895.00;5019294;28;20041;-61
2022/04/11 01:23:14;;;;;;;9.88;6.85;;;;;;;1.49;82.29;101886.28;5019569;28;20069;-61
2022/04/11 01:25:40;;;;;;;13.05;7.00;;;;;;;1.48;82.18;101882.78;5034741;28;20037;-61
2022/04/11 01:28:06;;;;;;;10.20;6.68;;;;;;;1.51;82.16;101881.91;5019632;28;20133;-61
2022/04/11 01:30:32;;;;;;;13.50;6.55;;;;;;;1.54;82.02;101889.72;5017294;28;20044;-61
2022/04/11 01:32:58;;;;;;;14.32;6.80;;;;;;;1.51;82.58;101880.13;5033789;28;20920;-61
2022/04/11 01:35:25;;;;;;;12.82;5.50;;;;;;;1.56;82.30;101874.84;5019749;28;20169;-61
2022/04/11 01:37:53;;;;;;;12.13;6.00;;;;;;;1.52;82.42;101881.00;5020242;28;20041;-61
2022/04/11 01:40:19;;;;;;;16.90;5.88;;;;;;;1.52;82.13;101871.34;5038682;28;20036;-61
2022/04/11 01:42:45;;;;;;;14.32;6.05;;;;;;;1.53;82.01;101867.84;5039570;28;20528;-61
2022/04/11 01:45:12;;;;;;;12.02;5.93;;;;;;;1.54;82.47;101866.06;5040622;28;20119;-61
2022/04/11 01:47:39;;;;;;;13.38;5.80;;;;;;;1.60;81.92;101870.41;5037451;28;20068;-61
2022/04/11 01:50:07;;;;;;;12.48;7.32;;;;;;;1.57;81.68;101866.06;5054054;28;20037;-61
2022/04/11 01:52:32;;;;;;;13.40;6.97;;;;;;;1.65;81.67;101871.22;5037827;28;20091;-62
2022/04/11 01:54:58;;;;;;;12.98;6.82;;;;;;;1.67;81.17;101872.97;5040407;28;20445;-61
2022/04/11 01:57:23;;;;;;;12.35;6.55;;;;;;;1.62;81.91;101869.50;5057512;28;20036;-62
2022/04/11 01:59:48;;;;;;;21.98;8.32;;;;;;;1.71;81.56;101866.81;5042258;28;20779;-61
2022/04/11 02:02:14;;;;;;;12.30;6.95;;;;;;;1.63;80.89;101873.88;5040282;28;20087;-61
2022/04/11 02:04:39;;;;;;;12.50;6.18;;;;;;;1.48;82.13;101871.41;5042178;28;20044;-61
2022/04/11 02:07:06;;;;;;;9.57;5.20;;;;;;;1.26;81.92;101883.88;5042220;28;20045;-61
2022/04/11 02:09:31;;;;;;;12.43;6.10;;;;;;;1.15;82.37;101885.69;5039540;28;20033;-61
2022/04/11 02:11:57;;;;;;;10.38;5.70;;;;;;;1.01;82.51;101891.94;5040234;28;20055;-61
2022/04/11 02:14:23;;;;;;;12.98;5.43;;;;;;;1.08;82.75;101884.88;5022375;22;20093;-65
2022/04/11 02:16:48;;;;;;;10.40;6.22;;;;;;;1.11;82.86;101884.84;4973194;28;20146;-65
2022/04/11 02:19:14;;;;;;;10.07;5.72;;;;;;;1.10;83.25;101882.22;4972249;28;20151;-65
2022/04/11 02:21:39;;;;;;;9.40;5.78;;;;;;;1.11;82.91;101879.59;4979127;28;20043;-64
2022/04/11 02:24:05;;;;;;;11.98;6.22;;;;;;;1.16;83.70;101883.06;4940834;28;20035;-65
2022/04/11 02:26:31;;;;;;;11.65;6.38;;;;;;;1.23;83.47;101883.88;4971033;28;20035;-65
2022/04/11 02:28:57;;;;;;;9.25;6.32;;;;;;;1.23;83.50;101876.88;4940354;29;20043;-66
2022/04/11 02:31:22;;;;;;;15.45;6.28;;;;;;;1.07;84.49;101880.50;5021724;28;20035;-63
2022/04/11 02:33:47;;;;;;;11.73;6.10;;;;;;;1.16;84.12;101885.69;4970064;28;20092;-63
2022/04/11 02:36:13;;;;;;;16.23;7.20;;;;;;;1.19;84.31;101882.16;4969430;28;20031;-63
2022/04/11 02:38:38;;;;;;;14.05;7.82;;;;;;;1.25;84.03;101888.22;4945609;28;20135;-63
2022/04/11 02:41:04;;;;;;;10.52;6.90;;;;;;;1.25;83.41;101879.47;4958772;28;20128;-63
2022/04/11 02:43:38;;;;;;;10.98;7.28;;;;;;;1.23;83.35;101883.88;4957601;28;20077;-63
2022/04/11 02:46:07;;;;;;;15.23;7.50;;;;;;;1.21;83.95;101877.78;4958675;28;20667;-63
2022/04/11 02:48:36;;;;;;;13.57;7.07;;;;;;;1.21;84.37;101876.03;5058148;28;20062;-63
2022/04/11 02:51:21;;;;;;;14.85;8.10;;;;;;;1.19;84.29;101879.53;4957566;28;20031;-63
2022/04/11 02:53:55;;;;;;;16.90;8.18;;;;;;;1.19;84.30;101877.75;5058179;28;20050;-63
2022/04/11 02:56:21;;;;;;;13.35;8.20;;;;;;;1.10;84.31;101877.84;4956877;28;20139;-63
2022/04/11 02:58:47;;;;;;;20.13;9.48;;;;;;;1.05;84.05;101882.25;4971845;28;20046;-63
2022/04/11 03:01:13;;;;;;;12.38;7.63;;;;;;;0.90;84.02;101880.59;4956106;28;20533;-63
2022/04/11 03:03:41;;;;;;;10.88;6.32;;;;;;;0.90;84.07;101884.97;4972651;28;20476;-63
2022/04/11 03:06:07;;;;;;;18.50;8.85;;;;;;;0.91;84.50;101881.50;4972457;28;20072;-63
2022/04/11 03:08:33;;;;;;;15.93;9.18;;;;;;;0.81;85.36;101878.06;4973145;28;20042;-63
2022/04/11 03:11:00;;;;;;;19.35;9.98;;;;;;;0.88;84.84;101877.13;4972444;28;20039;-63
2022/04/11 03:13:26;;;;;;;20.85;9.63;;;;;;;0.84;84.90;101878.03;4971913;28;20050;-63
2022/04/11 03:15:51;;;;;;;18.67;11.20;;;;;;;0.83;85.71;101873.66;4956024;28;20141;-63
2022/04/11 03:18:18;;;;;;;22.42;12.18;;;;;;;0.84;86.05;101871.91;4955915;28;20038;-63
2022/04/11 03:20:47;;;;;;;16.50;10.48;;;;;;;0.90;85.62;101871.84;4973081;28;20033;-64
2022/04/11 03:23:15;;;;;;;20.05;9.60;;;;;;;0.55;85.59;101864.19;5037607;28;20045;-63
2022/04/11 03:25:42;;;;;;;15.93;8.88;;;;;;;0.45;85.89;101868.63;5037266;28;20480;-63
2022/04/11 03:28:13;;;;;;;18.75;10.05;;;;;;;0.55;86.21;101870.31;5037405;28;20844;-63
2022/04/11 03:30:39;;;;;;;21.35;10.60;;;;;;;0.60;85.72;101860.66;5037664;28;20045;-65
2022/04/11 03:33:04;;;;;;;18.48;10.40;;;;;;;0.77;85.62;101866.69;5038859;28;20052;-65
2022/04/11 03:35:33;;;;;;;22.50;11.07;;;;;;;0.90;85.34;101864.84;5016938;28;20034;-65
2022/04/11 03:37:58;;;;;;;22.98;13.00;;;;;;;0.95;84.79;101862.19;4937682;28;20079;-65
2022/04/11 03:40:26;;;;;;;22.90;12.50;;;;;;;0.95;84.45;101870.94;4939056;28;20909;-65
2022/04/11 03:42:54;;;;;;;23.55;12.90;;;;;;;0.94;84.41;101870.97;4955503;28;20185;-65
2022/04/11 03:45:20;;;;;;;24.60;12.85;;;;;;;0.89;84.52;101868.34;4956387;28;20751;-65
2022/04/11 03:47:47;;;;;;;23.67;13.45;;;;;;;0.85;84.81;101868.38;4958435;28;20950;-65
2022/04/11 03:50:14;;;;;;;19.48;12.52;;;;;;;0.68;84.64;101863.25;4956520;28;21203;-67
2022/04/11 03:52:41;;;;;;;23.80;12.85;;;;;;;0.71;85.34;101866.75;4956611;28;20125;-65
2022/04/11 03:55:09;;;;;;;26.00;13.23;;;;;;;0.74;86.16;101861.47;4956138;28;20038;-65
2022/04/11 03:57:37;;;;;;;24.40;13.63;;;;;;;0.81;85.47;101874.56;4955953;28;20117;-65
2022/04/11 04:00:04;;;;;;;22.58;13.63;;;;;;;0.83;85.15;101868.41;4950945;28;20054;-64
2022/04/11 04:02:43;;;;;;;21.95;12.65;;;;;;;0.84;85.54;101871.91;4951770;28;20042;-64
2022/04/11 04:05:09;;;;;;;20.60;13.38;;;;;;;0.74;84.76;101864.09;4950192;28;20035;-65
2022/04/11 04:07:36;;;;;;;21.25;12.32;;;;;;;0.49;85.55;101867.72;4963670;28;20587;-65
2022/04/11 04:10:03;;;;;;;19.42;12.10;;;;;;;0.45;85.35;101861.66;4952188;28;20039;-65
2022/04/11 04:12:28;;;;;;;25.58;12.48;;;;;;;0.34;85.20;101862.56;4951722;28;20051;-65
2022/04/11 04:15:05;;;;;;;19.67;11.45;;;;;;;0.45;85.35;101863.38;4970949;28;20051;-65
2022/04/11 04:17:30;;;;;;;20.73;13.02;;;;;;;0.42;85.43;101859.03;4971477;28;20151;-65
2022/04/11 04:20:00;;;;;;;21.13;12.23;;;;;;;0.47;85.31;101859.88;4950139;28;20551;-65
2022/04/11 04:22:27;;;;;;;27.20;13.75;;;;;;;0.61;85.66;101865.06;4937431;28;20039;-65
2022/04/11 04:24:52;;;;;;;23.17;13.88;;;;;;;0.53;86.18;101861.59;4952371;28;20037;-64
2022/04/11 04:27:18;;;;;;;21.98;13.43;;;;;;;0.62;85.21;101861.53;4951544;28;20035;-65
2022/04/11 04:29:44;;;;;;;24.85;13.77;;;;;;;0.64;84.83;101853.66;4953330;28;20040;-64
2022/04/11 04:32:09;;;;;;;22.73;14.07;;;;;;;0.53;84.76;101853.72;4950624;28;20041;-65
2022/04/11 04:34:37;;;;;;;26.33;13.40;;;;;;;0.41;85.42;101856.44;4953951;28;20108;-65
2022/04/11 04:37:03;;;;;;;24.55;14.45;;;;;;;0.49;86.27;101857.25;4951507;28;20031;-65
2022/04/11 04:39:29;;;;;;;28.08;12.82;;;;;;;0.60;85.53;101860.66;4957438;28;20055;-64
2022/04/11 04:41:54;;;;;;;24.50;14.23;;;;;;;0.70;85.36;101854.50;4973653;28;20445;-65
2022/04/11 04:44:23;;;;;;;21.65;14.32;;;;;;;0.72;84.96;101857.97;4950542;28;20039;-65
2022/04/11 04:46:53;;;;;;;25.60;14.55;;;;;;;0.76;84.93;101853.59;4950696;28;20038;-65
2022/04/11 04:49:23;;;;;;;23.88;14.73;;;;;;;0.71;85.05;101851.00;4956149;28;20035;-65
2022/04/11 04:51:50;;;;;;;26.83;13.35;;;;;;;0.80;84.77;101855.28;4956458;28;20689;-65
2022/04/11 04:54:17;;;;;;;27.15;14.23;;;;;;;0.74;85.13;101855.34;4956942;28;20039;-65
2022/04/11 04:56:43;;;;;;;21.40;14.18;;;;;;;0.83;85.01;101842.16;4956238;28;20621;-65
2022/04/11 04:59:15;;;;;;;23.38;14.07;;;;;;;0.84;85.12;101838.66;4958164;28;20043;-64
2022/04/11 05:01:42;;;;;;;27.58;15.45;;;;;;;0.87;84.94;101849.13;4956229;28;20395;-65
2022/04/11 05:04:10;;;;;;;24.27;16.05;;;;;;;0.99;85.01;101853.41;4956313;28;20050;-64
2022/04/11 05:06:36;;;;;;;26.95;16.95;;;;;;;1.13;84.61;101848.06;4955841;28;20073;-65
2022/04/11 05:09:03;;;;;;;29.77;15.95;;;;;;;1.09;84.18;101849.84;4956413;28;20046;-64
2022/04/11 05:11:29;;;;;;;28.17;16.60;;;;;;;1.17;84.51;101847.16;4955654;28;20100;-64
2022/04/11 05:13:54;;;;;;;25.98;15.30;;;;;;;1.18;83.88;101847.13;4957119;28;20062;-65
2022/04/11 05:16:20;;;;;;;27.17;16.33;;;;;;;1.27;83.84;101848.81;4955815;28;20223;-64
2022/04/11 05:18:46;;;;;;;23.30;15.80;;;;;;;1.12;83.75;101846.31;4956300;28;20061;-65
2022/04/11 05:21:12;;;;;;;31.67;14.82;;;;;;;1.15;83.89;101847.16;4972366;28;20488;-65
2022/04/11 05:23:37;;;;;;;26.10;15.48;;;;;;;1.21;83.80;101848.88;4957740;28;20031;-65
2022/04/11 05:26:07;;;;;;;24.83;15.82;;;;;;;1.33;82.94;101840.00;4956091;28;20122;-65
2022/04/11 05:28:34;;;;;;;25.13;15.20;;;;;;;1.19;83.37;101843.63;4959073;28;20042;-64
2022/04/11 05:31:02;;;;;;;25.10;16.30;;;;;;;1.22;83.68;101840.97;4974977;28;20454;-65
2022/04/11 05:33:32;;;;;;;25.75;14.95;;;;;;;1.28;83.34;101848.78;4952981;28;20130;-65
2022/04/11 05:35:59;;;;;;;24.40;14.32;;;;;;;1.42;83.24;101840.78;4960331;28;20092;-64
2022/04/11 05:38:25;;;;;;;28.08;15.55;;;;;;;1.46;82.82;101839.03;4955233;28;20043;-65
2022/04/11 05:40:52;;;;;;;23.70;13.50;;;;;;;1.56;82.61;101845.94;4952577;28;20031;-65
2022/04/11 05:43:26;;;;;;;25.50;15.23;;;;;;;1.63;82.19;101850.22;4955362;28;20042;-64
2022/04/11 05:45:52;;;;;;;24.52;13.77;;;;;;;1.76;81.69;101848.34;4937475;28;20031;-65
2022/04/11 05:48:17;;;;;;;25.40;13.93;;;;;;;1.89;81.56;101847.31;4955382;28;20031;-64
2022/04/11 05:50:43;;;;;;;26.33;15.63;;;;;;;2.01;81.83;101846.31;4958377;28;20038;-64
2022/04/11 05:53:09;;;;;;;23.17;14.32;;;;;;;2.06;81.52;101841.88;4955413;28;20043;-64
2022/04/11 05:55:35;;;;;;;22.73;14.52;;;;;;;2.15;80.75;101841.72;4938950;29;20051;-64
2022/04/11 05:58:00;;;;;;;23.70;14.43;;;;;;;2.29;80.47;101831.91;4938699;28;20093;-64
2022/04/11 06:00:26;;;;;;;27.98;14.98;;;;;;;2.33;80.51;101840.63;4953786;28;20521;-64
2022/04/11 06:02:51;;;;;;;21.73;14.02;;;;;;;2.37;80.06;101844.09;4954617;28;20120;-64
2022/04/11 06:05:19;;;;;;;25.33;14.00;;;;;;;2.46;80.31;101846.59;4974823;28;20043;-64
2022/04/11 06:07:44;;;;;;;23.80;14.10;;;;;;;2.72;79.71;101846.25;4959618;28;20514;-65
2022/04/11 06:10:11;;;;;;;24.83;13.98;;;;;;;2.95;78.18;101843.25;4952965;28;20109;-64
2022/04/11 06:12:37;;;;;;;22.13;14.25;;;;;;;3.08;77.65;101839.53;4953598;28;20080;-65
2022/04/11 06:15:04;;;;;;;20.02;12.75;;;;;;;3.27;77.36;101840.97;4959411;28;20132;-64
2022/04/11 06:17:30;;;;;;;19.73;12.82;;;;;;;3.58;76.09;101836.00;4956409;28;20355;-64
2022/04/11 06:19:58;;;;;;;23.60;13.25;;;;;;;3.48;76.23;101841.50;4970728;28;20039;-64
2022/04/11 06:22:24;;;;;;;21.35;12.93;;;;;;;3.66;76.60;101835.00;4951068;28;20047;-64
2022/04/11 06:24:50;;;;;;;21.80;13.27;;;;;;;3.74;76.49;101831.31;4951392;28;20080;-64
2022/04/11 06:27:17;;;;;;;21.08;12.98;;;;;;;3.93;75.83;101844.16;4956178;28;20066;-65
2022/04/11 06:29:44;;;;;;;22.38;12.85;;;;;;;4.24;76.43;101842.63;4974402;28;20782;-65
2022/04/11 06:32:10;;;;;;;22.92;13.60;;;;;;;4.64;74.96;101845.25;4956269;28;20031;-64
2022/04/11 06:34:37;;;;;;;23.10;12.63;;;;;;;5.16;73.91;101849.31;4958572;28;20031;-65
2022/04/11 06:37:04;;;;;;;19.00;12.25;;;;;;;5.82;72.08;101844.06;4954924;28;20092;-64
2022/04/11 06:39:30;;;;;;;19.73;12.38;;;;;;;6.46;70.70;101853.72;4950859;28;20049;-65
2022/04/11 06:41:57;;;;;;;22.50;11.70;;;;;;;6.55;69.06;101849.94;4958351;28;20037;-65
2022/04/11 06:44:24;;;;;;;18.50;11.60;;;;;;;6.44;69.76;101842.31;4970054;28;20047;-65
2022/04/11 06:47:10;;;;;;;20.20;11.93;;;;;;;6.37;70.57;101845.19;4941018;28;20051;-65
2022/04/11 06:49:36;;;;;;;17.73;12.77;;;;;;;6.25;72.17;101850.84;4969050;28;20038;-65
2022/04/11 06:52:02;;;;;;;19.77;12.07;;;;;;;6.40;70.22;101853.03;4959335;28;20096;-65
2022/04/11 06:54:28;;;;;;;23.73;12.60;;;;;;;6.71;69.43;101848.53;4959255;28;20124;-65
2022/04/11 06:56:53;;;;;;;19.10;11.63;;;;;;;7.49;68.26;101838.03;4959214;28;20053;-64
2022/04/11 06:59:19;;;;;;;19.05;11.88;;;;;;;7.89;65.36;101831.31;4959143;28;20652;-65
2022/04/11 07:01:44;;;;;;;17.38;10.50;;;;;;;8.43;62.69;101830.19;4957573;28;20047;-65
2022/04/11 07:04:09;;;;;;;19.33;10.88;;;;;;;8.98;61.02;101828.00;4958309;28;20041;-65
2022/04/11 07:06:35;;;;;;;20.08;10.68;;;;;;;9.02;59.68;101834.91;4953210;28;20049;-63
2022/04/11 07:09:00;;;;;;;19.83;12.15;;;;;;;9.49;59.33;101832.09;4957710;28;20088;-63
2022/04/11 07:11:26;;;;;;;14.98;10.60;;;;;;;9.86;57.21;101838.47;4952478;28;20136;-63
2022/04/11 07:13:51;;;;;;;20.25;10.65;;;;;;;10.19;56.17;101833.41;4954969;28;20100;-63
2022/04/11 07:16:16;;;;;;;17.65;9.13;;;;;;;10.16;53.88;101832.69;4959308;28;20120;-63
2022/04/11 07:18:42;;;;;;;18.50;9.70;;;;;;;10.93;52.76;101828.13;4959729;28;20983;-64
2022/04/11 07:21:07;;;;;;;14.82;8.60;;;;;;;10.12;52.88;101837.28;4986563;28;20041;-65
2022/04/11 07:23:33;;;;;;;12.60;8.63;;;;;;;10.46;53.22;101841.09;5038879;28;20040;-65
2022/04/11 07:25:58;;;;;;;16.38;8.77;;;;;;;10.80;53.07;101824.38;4960676;28;20053;-65
2022/04/11 07:28:23;;;;;;;13.65;8.15;;;;;;;11.09;52.98;101833.59;4959110;28;20053;-63
2022/04/11 07:30:49;;;;;;;14.45;9.07;;;;;;;11.45;52.35;101825.56;4957925;28;20053;-65
2022/04/11 07:33:14;;;;;;;13.60;8.40;;;;;;;11.40;53.57;101827.59;4955555;28;20507;-64
2022/04/11 07:35:40;;;;;;;13.63;8.43;;;;;;;11.73;50.45;101822.28;4958728;28;20047;-65
2022/04/11 07:38:05;;;;;;;12.35;7.28;;;;;;;11.75;49.48;101827.56;4955108;28;20074;-64
2022/04/11 07:40:31;;;;;;;12.52;7.60;;;;;;;12.01;51.86;101832.44;4955127;28;20066;-64
2022/04/11 07:42:56;;;;;;;10.75;7.38;;;;;;;12.50;49.48;101823.53;4953163;28;20168;-65
2022/04/11 07:45:22;;;;;;;15.57;6.40;;;;;;;11.88;49.22;101818.84;4955468;28;20438;-64
2022/04/11 07:47:48;;;;;;;12.35;5.68;;;;;;;11.83;47.74;101814.69;4955139;28;20039;-64
2022/04/11 07:50:14;;;;;;;13.05;5.50;;;;;;;11.80;47.01;101815.69;4956901;28;20856;-64
2022/04/11 07:52:41;;;;;;;8.35;5.00;;;;;;;12.46;46.65;101813.97;4958437;28;20047;-64
2022/04/11 07:55:07;;;;;;;10.15;6.10;;;;;;;12.43;48.31;101804.28;4958837;28;20038;-64
2022/04/11 07:57:33;;;;;;;9.63;5.93;;;;;;;12.03;47.07;101803.78;4953178;28;20051;-65
2022/04/11 07:59:58;;;;;;;11.98;6.38;;;;;;;12.59;46.07;101798.94;4958321;28;20035;-64
2022/04/11 08:02:25;;;;;;;10.25;5.82;;;;;;;12.82;46.92;101792.28;4955737;28;20057;-64
2022/04/11 08:04:51;;;;;;;12.15;6.10;;;;;;;12.43;45.94;101793.59;4947288;28;20047;-64
2022/04/11 08:07:16;;;;;;;11.32;5.15;;;;;;;12.32;46.58;101793.31;4955648;28;20471;-65
2022/04/11 08:09:42;;;;;;;8.68;5.38;;;;;;;12.31;47.28;101794.28;4958742;28;20054;-64
2022/04/11 08:12:08;;;;;;;9.93;5.88;;;;;;;12.35;44.83;101795.81;4955569;28;20085;-65
2022/04/11 08:14:34;;;;;;;6.78;5.00;;;;;;;12.79;47.28;101787.94;4957660;28;20053;-64
2022/04/11 08:17:03;;;;;;;10.60;5.78;;;;;;;13.02;47.81;101786.63;4958292;28;20577;-65
2022/04/11 08:19:32;;;;;;;10.35;5.38;;;;;;;12.69;45.87;101792.09;4957725;28;20078;-67
2022/04/11 08:21:57;;;;;;;11.27;5.55;;;;;;;12.28;45.85;101792.63;4974264;28;20039;-63
2022/04/11 08:24:23;;;;;;;10.25;4.95;;;;;;;12.73;46.42;101784.78;4956315;28;20050;-64
2022/04/11 08:26:49;;;;;;;7.95;5.40;;;;;;;13.42;47.21;101776.25;4956963;28;20050;-65
2022/04/11 08:29:15;;;;;;;8.05;5.10;;;;;;;13.32;47.86;101775.09;4956771;28;20240;-63
2022/04/11 08:31:40;;;;;;;8.50;5.60;;;;;;;13.10;46.34;101767.41;4957581;28;20487;-64
2022/04/11 08:34:06;;;;;;;13.15;6.03;;;;;;;12.81;47.79;101766.47;4957484;28;20840;-64
2022/04/11 08:36:31;;;;;;;13.18;5.78;;;;;;;13.51;47.94;101765.00;4957317;28;20051;-64
2022/04/11 08:38:56;;;;;;;8.02;5.47;;;;;;;13.07;44.99;101765.81;4947534;28;20104;-64
2022/04/11 08:41:25;;;;;;;8.75;5.40;;;;;;;12.44;49.04;101773.91;4938374;28;20659;-64
2022/04/11 08:43:54;;;;;;;10.95;5.55;;;;;;;13.29;48.11;101775.25;4938199;28;20062;-64
2022/04/11 08:46:20;;;;;;;10.60;5.93;;;;;;;13.34;46.04;101774.03;4943680;28;20197;-64
2022/04/11 08:48:46;;;;;;;13.43;5.93;;;;;;;12.88;47.32;101778.53;4938599;28;20591;-65
2022/04/11 08:51:12;;;;;;;8.00;5.85;;;;;;;12.52;46.17;101774.34;4952131;28;20066;-62
2022/04/11 08:53:38;;;;;;;10.50;5.60;;;;;;;13.30;47.45;101775.16;4939330;28;20068;-64
2022/04/11 08:56:03;;;;;;;8.27;5.10;;;;;;;12.74;45.55;101773.13;4940714;28;20093;-65
2022/04/11 08:58:29;;;;;;;7.07;5.07;;;;;;;12.85;48.10;101770.66;4965771;28;20050;-65
2022/04/11 09:00:54;;;;;;;8.55;5.53;;;;;;;12.60;48.12;101768.53;4948894;28;20057;-65
2022/04/11 09:03:20;;;;;;;8.00;5.07;;;;;;;12.59;46.50;101773.03;4949290;28;20050;-64
2022/04/11 09:06:09;;;;;;;10.73;5.05;;;;;;;12.85;47.61;101762.66;4953038;28;20054;-64
2022/04/11 09:08:42;;;;;;;7.43;4.85;;;;;;;12.64;47.17;101762.06;4950331;28;20322;-64
2022/04/11 09:11:08;;;;;;;9.05;5.25;;;;;;;13.06;49.59;101766.75;4952147;28;20066;-65
2022/04/11 09:13:48;;;;;;;10.13;5.10;;;;;;;13.13;47.58;101765.44;4952241;28;20045;-64
2022/04/11 09:16:14;;;;;;;10.50;4.82;;;;;;;12.80;47.21;101767.41;4953687;28;20126;-64
2022/04/11 09:18:46;;;;;;;10.77;4.57;;;;;;;12.88;46.15;101751.78;4954161;28;20097;-64
2022/04/11 09:21:12;;;;;;;10.27;5.20;;;;;;;13.15;49.91;101763.53;4952956;28;20101;-64
2022/04/11 09:23:37;;;;;;;8.35;4.60;;;;;;;12.87;46.80;101755.41;4945427;28;20042;-64
2022/04/11 09:26:19;;;;;;;12.38;4.22;;;;;;;12.93;45.99;101750.53;4952382;28;20054;-64
2022/04/11 09:29:01;;;;;;;7.72;4.57;;;;;;;13.15;45.95;101766.22;4950700;28;20043;-65
2022/04/11 09:31:27;;;;;;;7.68;3.90;;;;;;;13.22;44.00;101753.34;4952825;28;20039;-64
2022/04/11 09:33:53;;;;;;;8.57;4.80;;;;;;;13.23;45.74;101757.75;4949594;28;20526;-64
2022/04/11 09:36:20;;;;;;;10.20;4.50;;;;;;;13.21;45.87;101747.13;4957148;28;20038;-64
2022/04/11 09:38:59;;;;;;;9.52;3.72;;;;;;;13.29;44.38;101754.69;4957707;28;20043;-64
2022/04/11 09:41:29;;;;;;;6.78;4.15;;;;;;;13.71;46.29;101753.06;4952123;28;20161;-64
2022/04/11 09:43:55;;;;;;;9.50;3.50;;;;;;;13.60;43.78;101744.78;4956426;28;20039;-64
2022/04/11 09:46:21;;;;;;;6.88;3.22;;;;;;;14.02;44.15;101745.75;4937651;28;20054;-64
2022/04/11 09:48:46;;;;;;;10.82;4.95;;;;;;;13.53;44.13;101738.09;4956751;28;20036;-65
2022/04/11 09:51:13;;;;;;;7.72;3.90;;;;;;;14.07;43.62;101740.97;4950081;28;20058;-67
2022/04/11 09:53:39;;;;;;;12.32;4.82;;;;;;;14.39;43.59;101730.84;4944233;28;20072;-64
2022/04/11 09:56:08;;;;;;;7.75;4.30;;;;;;;14.29;44.99;101727.88;4951879;28;20053;-64
2022/04/11 09:58:36;;;;;;;7.38;3.88;;;;;;;14.05;42.54;101740.19;4953437;28;20142;-64
2022/04/11 10:01:04;;;;;;;9.45;3.63;;;;;;;13.51;41.95;101727.47;4951823;28;20442;-64
2022/04/11 10:03:30;;;;;;;7.22;3.50;;;;;;;13.59;41.95;101725.16;4941261;28;20391;-64
2022/04/11 10:05:56;;;;;;;10.00;4.18;;;;;;;13.34;41.99;101723.13;4947057;28;20435;-64
2022/04/11 10:08:24;;;;;;;8.93;4.60;;;;;;;13.84;43.43;101716.47;4946168;28;20043;-64
2022/04/11 10:10:51;;;;;;;7.95;4.15;;;;;;;14.43;42.34;101708.22;4945198;28;20112;-64
2022/04/11 10:13:17;;;;;;;7.45;3.45;;;;;;;14.28;41.45;101707.41;4952406;28;20035;-64
2022/04/11 10:15:46;;;;;;;7.80;3.90;;;;;;;14.64;43.17;101709.50;4956576;28;20770;-65
2022/04/11 10:18:14;;;;;;;6.68;3.70;;;;;;;14.98;42.02;101716.16;4959228;28;20031;-64
2022/04/11 10:20:43;;;;;;;8.75;3.30;;;;;;;14.37;41.51;101716.69;4954722;28;20035;-64
2022/04/11 10:23:25;;;;;;;6.72;3.70;;;;;;;14.40;40.23;101713.78;4949536;28;20043;-64
2022/04/11 10:25:50;;;;;;;7.97;3.95;;;;;;;14.39;39.31;101709.38;4954915;28;20081;-63
2022/04/11 10:28:17;;;;;;;6.00;3.90;;;;;;;14.70;40.99;101703.72;4946374;28;20149;-63
2022/04/11 10:30:44;;;;;;;6.68;3.92;;;;;;;14.81;43.07;101700.34;4952099;28;20132;-63
2022/04/11 10:33:09;;;;;;;11.90;5.50;;;;;;;14.28;41.26;101704.72;4948454;28;20038;-64
2022/04/11 10:35:43;;;;;;;7.45;3.55;;;;;;;14.07;41.04;101703.44;4948676;28;20130;-64
2022/04/11 10:38:11;;;;;;;10.63;3.78;;;;;;;14.46;38.11;101711.56;4955254;28;20044;-64
2022/04/11 10:40:38;;;;;;;6.57;4.22;;;;;;;14.72;39.39;101695.59;4951419;28;20035;-63
2022/04/11 10:43:05;;;;;;;7.20;3.67;;;;;;;13.63;38.61;101709.78;4951922;28;20042;-64
2022/04/11 10:45:44;;;;;;;8.50;4.22;;;;;;;13.93;38.69;101706.97;4950428;28;20838;-63
2022/04/11 10:48:12;;;;;;;15.75;5.80;;;;;;;13.73;39.12;101708.25;4957314;28;20561;-64
2022/04/11 10:50:38;;;;;;;9.55;4.63;;;;;;;14.09;40.22;101694.31;4956456;28;20407;-63
2022/04/11 10:53:12;;;;;;;7.32;4.38;;;;;;;14.23;40.75;101688.91;4952893;28;20046;-63
2022/04/11 10:55:54;;;;;;;9.15;4.05;;;;;;;13.86;39.43;101700.31;4958203;28;20796;-64
2022/04/11 10:58:22;;;;;;;8.15;5.63;;;;;;;13.53;39.98;101695.22;4956911;28;20787;-63
2022/04/11 11:00:47;;;;;;;12.20;5.20;;;;;;;13.33;40.55;101691.94;4957696;28;20408;-64
2022/04/11 11:03:13;;;;;;;8.80;5.35;;;;;;;13.32;38.58;101689.38;4957843;28;20038;-66
2022/04/11 11:05:48;;;;;;;13.13;5.43;;;;;;;14.01;40.54;101683.22;4956603;28;20043;-63
2022/04/11 11:08:14;;;;;;;10.55;5.43;;;;;;;13.92;40.07;101681.13;4956420;28;20245;-64
2022/04/11 11:10:58;;;;;;;8.85;4.97;;;;;;;14.07;37.78;101677.47;4954561;28;20801;-63
2022/04/11 11:13:36;;;;;;;7.28;4.82;;;;;;;13.87;41.60;101681.44;4959603;28;20043;-63
2022/04/11 11:16:09;;;;;;;10.38;4.68;;;;;;;13.83;37.82;101679.03;4965912;28;20035;-65
2022/04/11 11:18:50;;;;;;;7.85;5.45;;;;;;;13.86;42.00;101670.81;4976208;28;20046;-63
2022/04/11 11:21:19;;;;;;;8.32;4.43;;;;;;;14.39;43.12;101658.38;4953899;28;20149;-64